createdAt,value
2018-01-14T00:00:58.812Z,990.47
2018-01-14T00:01:58.821Z,990.45
2018-01-14T00:02:58.803Z,990.42
2018-01-14T00:03:58.792Z,990.43
2018-01-14T00:04:58.773Z,990.39
2018-01-14T00:05:58.778Z,990.39
2018-01-14T00:06:58.756Z,990.38
2018-01-14T00:07:58.747Z,990.35
2018-01-14T00:08:58.743Z,990.39
2018-01-14T00:09:58.742Z,990.38
2018-01-14T00:10:58.721Z,990.38
2018-01-14T00:11:58.706Z,990.36
2018-01-14T00:12:58.699Z,990.31
2018-01-14T00:13:58.699Z,990.30
2018-01-14T00:14:58.681Z,990.29
2018-01-14T00:15:58.687Z,990.29
2018-01-14T00:16:58.662Z,990.31
2018-01-14T00:17:58.660Z,990.33
2018-01-14T00:18:58.645Z,990.29
2018-01-14T00:19:58.652Z,990.32
2018-01-14T00:20:58.629Z,990.32
2018-01-14T00:21:58.619Z,990.33
2018-01-14T00:22:58.622Z,990.37
2018-01-14T00:23:58.598Z,990.41
2018-01-14T00:24:58.587Z,990.33
2018-01-14T00:25:58.577Z,990.33
2018-01-14T00:26:58.577Z,990.35
2018-01-14T00:27:58.574Z,990.33
2018-01-14T00:28:58.554Z,990.33
2018-01-14T00:29:58.552Z,990.34
2018-01-14T00:30:58.537Z,990.34
2018-01-14T00:31:58.520Z,990.34
2018-01-14T00:32:58.528Z,990.32
2018-01-14T00:33:58.507Z,990.31
2018-01-14T00:34:58.503Z,990.29
2018-01-14T00:35:58.490Z,990.35
2018-01-14T00:36:58.495Z,990.37
2018-01-14T00:37:58.472Z,990.33
2018-01-14T00:38:58.463Z,990.31
2018-01-14T00:39:58.452Z,990.27
2018-01-14T00:40:58.448Z,990.26
2018-01-14T00:41:58.460Z,990.30
2018-01-14T00:42:58.423Z,990.29
2018-01-14T00:43:58.414Z,990.28
2018-01-14T00:44:58.405Z,990.24
2018-01-14T00:45:58.412Z,990.26
2018-01-14T00:46:58.395Z,990.25
2018-01-14T00:47:58.382Z,990.23
2018-01-14T00:48:58.373Z,990.26
2018-01-14T00:49:58.359Z,990.24
2018-01-14T00:50:58.347Z,990.23
2018-01-14T00:51:58.338Z,990.25
2018-01-14T00:52:58.336Z,990.28
2018-01-14T00:53:58.329Z,990.21
2018-01-14T00:54:58.313Z,990.25
2018-01-14T00:55:58.320Z,990.21
2018-01-14T00:56:58.292Z,990.22
2018-01-14T00:57:58.306Z,990.23
2018-01-14T00:58:58.274Z,990.26
2018-01-14T00:59:58.270Z,990.31
2018-01-14T01:00:58.267Z,990.29
2018-01-14T01:01:58.251Z,990.27
2018-01-14T01:02:58.251Z,990.28
2018-01-14T01:03:58.256Z,990.32
2018-01-14T01:04:58.227Z,990.32
2018-01-14T01:05:58.218Z,990.28
2018-01-14T01:06:58.207Z,990.30
2018-01-14T01:07:58.206Z,990.24
2018-01-14T01:08:58.191Z,990.22
2018-01-14T01:09:58.180Z,990.20
2018-01-14T01:10:58.183Z,990.22
2018-01-14T01:11:58.164Z,990.22
2018-01-14T01:12:58.150Z,990.19
2018-01-14T01:13:58.144Z,990.18
2018-01-14T01:14:58.146Z,990.15
2018-01-14T01:15:58.121Z,990.12
2018-01-14T01:16:58.114Z,990.14
2018-01-14T01:17:58.104Z,990.15
2018-01-14T01:18:58.098Z,990.12
2018-01-14T01:19:58.084Z,990.15
2018-01-14T01:20:58.074Z,990.16
2018-01-14T01:21:58.073Z,990.14
2018-01-14T01:22:58.057Z,990.13
2018-01-14T01:23:58.064Z,990.13
2018-01-14T01:24:58.037Z,990.12
2018-01-14T01:25:58.038Z,990.11
2018-01-14T01:26:58.029Z,990.12
2018-01-14T01:27:58.023Z,990.06
2018-01-14T01:28:58.006Z,990.11
2018-01-14T01:29:57.998Z,990.09
2018-01-14T01:30:57.997Z,990.09
2018-01-14T01:31:57.983Z,990.07
2018-01-14T01:32:57.970Z,990.05
2018-01-14T01:33:57.981Z,990.08
2018-01-14T01:34:57.957Z,990.07
2018-01-14T01:35:57.952Z,990.05
2018-01-14T01:36:57.958Z,990.04
2018-01-14T01:37:57.928Z,990.01
2018-01-14T01:38:57.932Z,990.00
2018-01-14T01:39:57.920Z,990.01
2018-01-14T01:40:57.902Z,989.94
2018-01-14T01:41:57.896Z,990.01
2018-01-14T01:42:57.884Z,990.00
2018-01-14T01:43:57.876Z,990.01
2018-01-14T01:44:57.874Z,990.03
2018-01-14T01:45:57.863Z,989.99
2018-01-14T01:46:57.854Z,990.01
2018-01-14T01:47:57.839Z,990.01
2018-01-14T01:48:57.833Z,990.03
2018-01-14T01:49:57.827Z,990.00
2018-01-14T01:50:57.823Z,990.03
2018-01-14T01:51:57.813Z,989.97
2018-01-14T01:52:57.798Z,990.00
2018-01-14T01:53:57.793Z,990.02
2018-01-14T01:54:57.778Z,990.00
2018-01-14T01:55:57.772Z,989.98
2018-01-14T01:56:57.783Z,989.99
2018-01-14T01:57:57.761Z,989.96
2018-01-14T01:58:57.757Z,989.98
2018-01-14T01:59:57.738Z,990.00
2018-01-14T02:00:57.735Z,990.00
2018-01-14T02:01:57.731Z,989.96
2018-01-14T02:02:57.715Z,989.99
2018-01-14T02:03:57.700Z,989.96
2018-01-14T02:04:57.691Z,989.95
2018-01-14T02:05:57.685Z,989.94
2018-01-14T02:06:57.721Z,989.98
2018-01-14T02:07:57.666Z,989.97
2018-01-14T02:08:57.668Z,989.95
2018-01-14T02:09:57.650Z,990.03
2018-01-14T02:10:57.643Z,990.01
2018-01-14T02:11:57.633Z,989.98
2018-01-14T02:12:57.643Z,989.96
2018-01-14T02:13:57.613Z,989.93
2018-01-14T02:14:57.606Z,989.95
2018-01-14T02:15:57.596Z,989.90
2018-01-14T02:16:57.614Z,989.90
2018-01-14T02:17:57.579Z,989.97
2018-01-14T02:18:57.572Z,989.94
2018-01-14T02:19:57.557Z,989.94
2018-01-14T02:20:57.555Z,989.98
2018-01-14T02:21:57.543Z,989.98
2018-01-14T02:22:57.555Z,989.98
2018-01-14T02:23:57.528Z,989.98
2018-01-14T02:24:57.513Z,989.98
2018-01-14T02:25:57.511Z,989.95
2018-01-14T02:26:57.497Z,989.98
2018-01-14T02:27:57.487Z,990.01
2018-01-14T02:28:57.479Z,990.00
2018-01-14T02:29:57.464Z,990.00
2018-01-14T02:30:57.459Z,989.96
2018-01-14T02:31:57.474Z,990.01
2018-01-14T02:32:57.439Z,989.98
2018-01-14T02:33:57.447Z,990.00
2018-01-14T02:34:57.429Z,989.98
2018-01-14T02:35:57.417Z,989.96
2018-01-14T02:36:57.411Z,989.98
2018-01-14T02:37:57.396Z,990.01
2018-01-14T02:38:57.391Z,990.00
2018-01-14T02:39:57.377Z,989.96
2018-01-14T02:40:57.375Z,989.99
2018-01-14T02:41:57.364Z,989.94
2018-01-14T02:42:57.363Z,989.97
2018-01-14T02:43:57.346Z,989.92
2018-01-14T02:44:57.333Z,989.91
2018-01-14T02:45:57.327Z,989.89
2018-01-14T02:46:57.327Z,989.86
2018-01-14T02:47:57.307Z,989.87
2018-01-14T02:48:57.298Z,989.88
2018-01-14T02:49:57.303Z,989.85
2018-01-14T02:50:57.280Z,989.82
2018-01-14T02:51:57.279Z,989.79
2018-01-14T02:52:57.266Z,989.83
2018-01-14T02:53:57.253Z,989.80
2018-01-14T02:54:57.247Z,989.76
2018-01-14T02:55:57.247Z,989.72
2018-01-14T02:56:57.230Z,989.82
2018-01-14T02:57:57.240Z,989.80
2018-01-14T02:58:57.221Z,989.82
2018-01-14T02:59:57.204Z,989.81
2018-01-14T03:00:57.198Z,989.77
2018-01-14T03:01:57.186Z,989.78
2018-01-14T03:02:57.172Z,989.80
2018-01-14T03:03:57.175Z,989.80
2018-01-14T03:04:57.162Z,989.78
2018-01-14T03:05:57.149Z,989.79
2018-01-14T03:06:57.146Z,989.79
2018-01-14T03:07:57.139Z,989.77
2018-01-14T03:08:57.130Z,989.78
2018-01-14T03:09:57.116Z,989.74
2018-01-14T03:10:57.108Z,989.78
2018-01-14T03:11:57.100Z,989.78
2018-01-14T03:12:57.088Z,989.79
2018-01-14T03:13:57.081Z,989.77
2018-01-14T03:14:57.072Z,989.67
2018-01-14T03:15:57.074Z,989.69
2018-01-14T03:16:57.065Z,989.71
2018-01-14T03:17:57.040Z,989.64
2018-01-14T03:18:57.033Z,989.70
2018-01-14T03:19:57.028Z,989.67
2018-01-14T03:20:57.017Z,989.69
2018-01-14T03:21:57.011Z,989.67
2018-01-14T03:22:57.001Z,989.65
2018-01-14T03:23:56.989Z,989.61
2018-01-14T03:24:56.981Z,989.60
2018-01-14T03:25:56.974Z,989.60
2018-01-14T03:26:56.966Z,989.58
2018-01-14T03:27:56.960Z,989.55
2018-01-14T03:28:56.947Z,989.62
2018-01-14T03:29:56.948Z,989.66
2018-01-14T03:30:56.931Z,989.63
2018-01-14T03:31:56.925Z,989.69
2018-01-14T03:32:56.916Z,989.68
2018-01-14T03:33:56.902Z,989.65
2018-01-14T03:34:56.898Z,989.64
2018-01-14T03:35:56.889Z,989.64
2018-01-14T03:36:56.881Z,989.61
2018-01-14T03:37:56.865Z,989.61
2018-01-14T03:38:56.866Z,989.59
2018-01-14T03:39:56.848Z,989.62
2018-01-14T03:40:56.847Z,989.60
2018-01-14T03:41:56.849Z,989.56
2018-01-14T03:42:56.844Z,989.56
2018-01-14T03:43:56.833Z,989.61
2018-01-14T03:44:56.807Z,989.63
2018-01-14T03:45:56.797Z,989.62
2018-01-14T03:46:56.790Z,989.73
2018-01-14T03:47:56.783Z,989.71
2018-01-14T03:48:56.771Z,989.69
2018-01-14T03:49:56.762Z,989.71
2018-01-14T03:50:56.752Z,989.67
2018-01-14T03:51:56.752Z,989.68
2018-01-14T03:52:56.737Z,989.77
2018-01-14T03:53:56.728Z,989.69
2018-01-14T03:54:56.723Z,989.69
2018-01-14T03:55:56.709Z,989.71
2018-01-14T03:56:56.703Z,989.63
2018-01-14T03:57:56.692Z,989.68
2018-01-14T03:58:56.683Z,989.66
2018-01-14T03:59:56.677Z,989.66
2018-01-14T04:00:56.668Z,989.67
2018-01-14T04:01:56.662Z,989.66
2018-01-14T04:02:56.652Z,989.65
2018-01-14T04:03:56.639Z,989.68
2018-01-14T04:04:56.634Z,989.70
2018-01-14T04:05:56.626Z,989.68
2018-01-14T04:06:56.612Z,989.72
2018-01-14T04:07:56.602Z,989.79
2018-01-14T04:08:56.594Z,989.81
2018-01-14T04:09:56.588Z,989.77
2018-01-14T04:10:56.580Z,989.81
2018-01-14T04:11:56.576Z,989.78
2018-01-14T04:12:56.557Z,989.84
2018-01-14T04:13:56.553Z,989.84
2018-01-14T04:14:56.546Z,989.88
2018-01-14T04:15:56.535Z,989.87
2018-01-14T04:16:56.519Z,989.86
2018-01-14T04:17:56.533Z,989.82
2018-01-14T04:18:56.503Z,989.83
2018-01-14T04:19:56.500Z,989.90
2018-01-14T04:20:56.489Z,989.89
2018-01-14T04:21:56.481Z,989.92
2018-01-14T04:22:56.539Z,989.90
2018-01-14T04:23:56.465Z,989.97
2018-01-14T04:24:56.457Z,990.00
2018-01-14T04:25:56.458Z,990.01
2018-01-14T04:26:56.435Z,990.02
2018-01-14T04:27:56.429Z,990.03
2018-01-14T04:28:56.424Z,990.03
2018-01-14T04:29:56.410Z,990.02
2018-01-14T04:30:56.399Z,990.04
2018-01-14T04:31:56.399Z,990.03
2018-01-14T04:32:56.384Z,989.98
2018-01-14T04:33:56.385Z,990.04
2018-01-14T04:34:56.374Z,990.04
2018-01-14T04:35:56.356Z,990.05
2018-01-14T04:36:56.363Z,990.06
2018-01-14T04:37:56.359Z,990.07
2018-01-14T04:38:56.338Z,990.08
2018-01-14T04:39:56.328Z,990.09
2018-01-14T04:40:56.319Z,990.10
2018-01-14T04:41:56.306Z,990.09
2018-01-14T04:42:56.301Z,990.02
2018-01-14T04:43:56.286Z,990.03
2018-01-14T04:44:56.276Z,990.01
2018-01-14T04:45:56.274Z,990.04
2018-01-14T04:46:56.269Z,990.00
2018-01-14T04:47:56.261Z,990.04
2018-01-14T04:48:56.251Z,989.97
2018-01-14T04:49:56.249Z,989.94
2018-01-14T04:50:56.233Z,989.94
2018-01-14T04:51:56.223Z,989.96
2018-01-14T04:52:56.211Z,989.93
2018-01-14T04:53:56.206Z,989.85
2018-01-14T04:54:56.200Z,989.88
2018-01-14T04:55:56.188Z,989.85
2018-01-14T04:56:56.177Z,989.86
2018-01-14T04:57:56.174Z,989.79
2018-01-14T04:58:56.165Z,989.80
2018-01-14T04:59:56.155Z,989.76
2018-01-14T05:00:56.151Z,989.77
2018-01-14T05:01:56.143Z,989.74
2018-01-14T05:02:56.125Z,989.72
2018-01-14T05:03:56.126Z,989.73
2018-01-14T05:04:56.112Z,989.76
2018-01-14T05:05:56.110Z,989.66
2018-01-14T05:06:56.098Z,989.75
2018-01-14T05:07:56.087Z,989.66
2018-01-14T05:08:56.079Z,989.73
2018-01-14T05:09:56.065Z,989.68
2018-01-14T05:10:56.061Z,989.70
2018-01-14T05:11:56.050Z,989.72
2018-01-14T05:12:56.044Z,989.71
2018-01-14T05:13:56.038Z,989.76
2018-01-14T05:14:56.038Z,989.75
2018-01-14T05:15:56.016Z,989.74
2018-01-14T05:16:56.013Z,989.75
2018-01-14T05:17:55.997Z,989.76
2018-01-14T05:18:55.995Z,989.76
2018-01-14T05:19:55.979Z,989.76
2018-01-14T05:20:55.975Z,989.77
2018-01-14T05:21:55.967Z,989.80
2018-01-14T05:22:55.956Z,989.78
2018-01-14T05:23:55.945Z,989.79
2018-01-14T05:24:55.937Z,989.89
2018-01-14T05:25:55.931Z,989.90
2018-01-14T05:26:55.923Z,989.84
2018-01-14T05:27:55.917Z,989.88
2018-01-14T05:28:55.908Z,989.87
2018-01-14T05:29:55.894Z,989.82
2018-01-14T05:30:55.886Z,989.87
2018-01-14T05:31:55.881Z,989.93
2018-01-14T05:32:55.868Z,989.99
2018-01-14T05:33:55.868Z,989.95
2018-01-14T05:34:55.859Z,989.92
2018-01-14T05:35:55.841Z,989.90
2018-01-14T05:36:55.832Z,989.95
2018-01-14T05:37:55.822Z,989.99
2018-01-14T05:38:55.818Z,989.94
2018-01-14T05:39:55.805Z,989.93
2018-01-14T05:40:55.796Z,989.96
2018-01-14T05:41:55.802Z,989.88
2018-01-14T05:42:55.785Z,989.90
2018-01-14T05:43:55.816Z,989.93
2018-01-14T05:44:55.760Z,989.95
2018-01-14T05:45:55.759Z,989.89
2018-01-14T05:46:55.745Z,989.91
2018-01-14T05:47:55.773Z,989.89
2018-01-14T05:48:55.727Z,989.96
2018-01-14T05:49:55.720Z,989.96
2018-01-14T05:50:55.706Z,990.01
2018-01-14T05:51:55.704Z,990.02
2018-01-14T05:52:55.694Z,990.00
2018-01-14T05:53:55.689Z,990.00
2018-01-14T05:54:55.730Z,990.03
2018-01-14T05:55:55.689Z,990.03
2018-01-14T05:56:55.663Z,990.01
2018-01-14T05:57:55.645Z,990.04
2018-01-14T05:58:55.658Z,990.03
2018-01-14T05:59:55.634Z,990.10
2018-01-14T06:00:55.620Z,990.07
2018-01-14T06:01:55.619Z,990.05
2018-01-14T06:02:55.637Z,990.08
2018-01-14T06:03:55.643Z,990.12
2018-01-14T06:04:55.639Z,990.11
2018-01-14T06:05:55.579Z,990.12
2018-01-14T06:06:55.597Z,990.16
2018-01-14T06:07:55.577Z,990.13
2018-01-14T06:08:55.577Z,990.11
2018-01-14T06:09:55.619Z,990.13
2018-01-14T06:10:55.574Z,990.11
2018-01-14T06:11:55.580Z,990.14
2018-01-14T06:12:55.517Z,990.13
2018-01-14T06:13:55.511Z,990.15
2018-01-14T06:14:55.508Z,990.14
2018-01-14T06:15:55.552Z,990.14
2018-01-14T06:16:55.489Z,990.14
2018-01-14T06:17:55.481Z,990.14
2018-01-14T06:18:55.473Z,990.14
2018-01-14T06:19:55.486Z,990.13
2018-01-14T06:20:55.452Z,990.14
2018-01-14T06:21:55.490Z,990.12
2018-01-14T06:22:55.482Z,990.17
2018-01-14T06:23:55.431Z,990.19
2018-01-14T06:24:55.422Z,990.15
2018-01-14T06:25:55.419Z,990.13
2018-01-14T06:26:55.406Z,990.12
2018-01-14T06:27:55.397Z,990.09
2018-01-14T06:28:55.400Z,990.09
2018-01-14T06:29:55.380Z,990.12
2018-01-14T06:30:55.370Z,990.09
2018-01-14T06:31:55.361Z,990.10
2018-01-14T06:32:55.358Z,990.09
2018-01-14T06:33:55.344Z,990.06
2018-01-14T06:34:55.339Z,990.08
2018-01-14T06:35:55.365Z,990.03
2018-01-14T06:36:55.324Z,990.06
2018-01-14T06:37:55.321Z,990.07
2018-01-14T06:38:55.317Z,990.08
2018-01-14T06:39:55.292Z,990.11
2018-01-14T06:40:55.298Z,990.08
2018-01-14T06:41:55.282Z,990.13
2018-01-14T06:42:55.287Z,990.12
2018-01-14T06:43:55.271Z,990.18
2018-01-14T06:44:55.256Z,990.17
2018-01-14T06:45:55.249Z,990.22
2018-01-14T06:46:55.238Z,990.19
2018-01-14T06:47:55.240Z,990.16
2018-01-14T06:48:55.251Z,990.24
2018-01-14T06:49:55.242Z,990.22
2018-01-14T06:50:55.206Z,990.20
2018-01-14T06:51:55.202Z,990.21
2018-01-14T06:52:55.254Z,990.17
2018-01-14T06:53:55.178Z,990.15
2018-01-14T06:54:55.284Z,990.20
2018-01-14T06:55:55.163Z,990.17
2018-01-14T06:56:55.167Z,990.23
2018-01-14T06:57:55.155Z,990.21
2018-01-14T06:58:55.149Z,990.23
2018-01-14T06:59:55.136Z,990.26
2018-01-14T07:00:55.131Z,990.24
2018-01-14T07:01:55.123Z,990.28
2018-01-14T07:02:55.118Z,990.27
2018-01-14T07:03:55.098Z,990.25
2018-01-14T07:04:55.116Z,990.22
2018-01-14T07:05:55.097Z,990.23
2018-01-14T07:06:55.076Z,990.23
2018-01-14T07:07:55.073Z,990.14
2018-01-14T07:08:55.058Z,990.17
2018-01-14T07:09:55.059Z,990.23
2018-01-14T07:10:55.045Z,990.22
2018-01-14T07:11:55.112Z,990.26
2018-01-14T07:12:55.059Z,990.28
2018-01-14T07:13:55.016Z,990.26
2018-01-14T07:14:55.013Z,990.26
2018-01-14T07:15:55.022Z,990.25
2018-01-14T07:16:55.004Z,990.25
2018-01-14T07:17:54.988Z,990.23
2018-01-14T07:18:54.988Z,990.22
2018-01-14T07:19:54.967Z,990.22
2018-01-14T07:20:54.982Z,990.24
2018-01-14T07:21:54.975Z,990.17
2018-01-14T07:22:54.945Z,990.18
2018-01-14T07:23:54.946Z,990.16
2018-01-14T07:24:54.926Z,990.17
2018-01-14T07:25:54.954Z,990.14
2018-01-14T07:26:54.930Z,990.16
2018-01-14T07:27:54.904Z,990.19
2018-01-14T07:28:54.900Z,990.18
2018-01-14T07:29:54.898Z,990.15
2018-01-14T07:30:54.893Z,990.13
2018-01-14T07:31:54.866Z,990.14
2018-01-14T07:32:54.863Z,990.14
2018-01-14T07:33:54.856Z,990.17
2018-01-14T07:34:54.846Z,990.16
2018-01-14T07:35:54.834Z,990.16
2018-01-14T07:36:54.836Z,990.17
2018-01-14T07:37:54.817Z,990.16
2018-01-14T07:38:54.828Z,990.14
2018-01-14T07:39:54.793Z,990.20
2018-01-14T07:40:54.797Z,990.22
2018-01-14T07:41:54.784Z,990.15
2018-01-14T07:42:54.772Z,990.20
2018-01-14T07:43:54.763Z,990.24
2018-01-14T07:44:54.766Z,990.25
2018-01-14T07:45:54.752Z,990.23
2018-01-14T07:46:54.735Z,990.26
2018-01-14T07:47:54.729Z,990.22
2018-01-14T07:48:54.737Z,990.22
2018-01-14T07:49:54.717Z,990.20
2018-01-14T07:50:54.714Z,990.16
2018-01-14T07:51:54.701Z,990.18
2018-01-14T07:52:54.709Z,990.13
2018-01-14T07:53:54.797Z,990.14
2018-01-14T07:54:54.728Z,990.18
2018-01-14T07:55:54.694Z,990.18
2018-01-14T07:56:54.688Z,990.19
2018-01-14T07:57:54.702Z,990.15
2018-01-14T07:58:54.647Z,990.17
2018-01-14T07:59:54.640Z,990.16
2018-01-14T08:00:54.686Z,990.15
2018-01-14T08:01:54.610Z,990.22
2018-01-14T08:02:54.606Z,990.17
2018-01-14T08:03:54.622Z,990.16
2018-01-14T08:04:54.626Z,990.15
2018-01-14T08:05:54.585Z,990.17
2018-01-14T08:06:54.569Z,990.16
2018-01-14T08:07:54.565Z,990.13
2018-01-14T08:08:54.588Z,990.12
2018-01-14T08:09:54.556Z,990.10
2018-01-14T08:10:54.533Z,990.11
2018-01-14T08:11:54.531Z,990.09
2018-01-14T08:12:54.520Z,990.12
2018-01-14T08:13:54.508Z,990.11
2018-01-14T08:14:54.516Z,990.15
2018-01-14T08:15:54.497Z,990.15
2018-01-14T08:16:54.580Z,990.17
2018-01-14T08:17:54.524Z,990.09
2018-01-14T08:18:54.488Z,990.14
2018-01-14T08:19:54.573Z,990.11
2018-01-14T08:20:54.461Z,990.09
2018-01-14T08:21:54.448Z,990.03
2018-01-14T08:22:54.441Z,990.06
2018-01-14T08:23:54.455Z,990.09
2018-01-14T08:24:54.423Z,990.06
2018-01-14T08:25:54.418Z,990.07
2018-01-14T08:26:54.404Z,990.05
2018-01-14T08:27:54.392Z,990.08
2018-01-14T08:28:54.390Z,990.13
2018-01-14T08:29:54.394Z,990.15
2018-01-14T08:30:54.376Z,990.18
2018-01-14T08:31:54.399Z,990.20
2018-01-14T08:32:54.358Z,990.22
2018-01-14T08:33:54.364Z,990.23
2018-01-14T08:34:54.346Z,990.25
2018-01-14T08:35:54.332Z,990.33
2018-01-14T08:36:54.407Z,990.28
2018-01-14T08:37:54.480Z,990.27
2018-01-14T08:38:54.308Z,990.33
2018-01-14T08:39:54.392Z,990.33
2018-01-14T08:40:54.307Z,990.29
2018-01-14T08:41:54.302Z,990.31
2018-01-14T08:42:54.276Z,990.27
2018-01-14T08:43:54.270Z,990.25
2018-01-14T08:44:54.295Z,990.26
2018-01-14T08:45:54.256Z,990.31
2018-01-14T08:46:54.247Z,990.32
2018-01-14T08:47:54.242Z,990.30
2018-01-14T08:48:54.249Z,990.32
2018-01-14T08:49:54.219Z,990.32
2018-01-14T08:50:54.217Z,990.30
2018-01-14T08:51:54.205Z,990.30
2018-01-14T08:52:54.196Z,990.30
2018-01-14T08:53:54.188Z,990.31
2018-01-14T08:54:54.178Z,990.33
2018-01-14T08:55:54.173Z,990.34
2018-01-14T08:56:54.167Z,990.33
2018-01-14T08:57:54.173Z,990.30
2018-01-14T08:58:54.154Z,990.27
2018-01-14T08:59:54.146Z,990.30
2018-01-14T09:00:54.135Z,990.33
2018-01-14T09:01:54.124Z,990.33
2018-01-14T09:02:54.118Z,990.36
2018-01-14T09:03:54.103Z,990.38
2018-01-14T09:04:54.112Z,990.43
2018-01-14T09:05:54.103Z,990.40
2018-01-14T09:06:54.083Z,990.37
2018-01-14T09:07:54.075Z,990.37
2018-01-14T09:08:54.078Z,990.41
2018-01-14T09:09:54.060Z,990.39
2018-01-14T09:10:54.067Z,990.35
2018-01-14T09:11:54.045Z,990.33
2018-01-14T09:12:54.038Z,990.39
2018-01-14T09:13:54.026Z,990.40
2018-01-14T09:14:54.031Z,990.45
2018-01-14T09:15:54.016Z,990.44
2018-01-14T09:16:54.005Z,990.48
2018-01-14T09:17:53.999Z,990.47
2018-01-14T09:18:53.998Z,990.45
2018-01-14T09:19:53.999Z,990.37
2018-01-14T09:20:53.970Z,990.36
2018-01-14T09:21:53.971Z,990.37
2018-01-14T09:22:53.966Z,990.31
2018-01-14T09:23:53.968Z,990.31
2018-01-14T09:24:53.942Z,990.28
2018-01-14T09:25:53.949Z,990.34
2018-01-14T09:26:53.936Z,990.40
2018-01-14T09:27:53.928Z,990.37
2018-01-14T09:28:53.906Z,990.39
2018-01-14T09:29:53.898Z,990.41
2018-01-14T09:30:53.896Z,990.42
2018-01-14T09:31:53.913Z,990.40
2018-01-14T09:32:53.883Z,990.40
2018-01-14T09:33:53.867Z,990.39
2018-01-14T09:34:53.861Z,990.38
2018-01-14T09:35:53.912Z,990.37
2018-01-14T09:36:53.859Z,990.35
2018-01-14T09:37:53.837Z,990.36
2018-01-14T09:38:53.884Z,990.37
2018-01-14T09:40:01.568Z,990.31
2018-01-14T09:40:53.845Z,990.29
2018-01-14T09:41:53.876Z,990.31
2018-01-14T09:42:53.839Z,990.24
2018-01-14T09:43:53.804Z,990.28
2018-01-14T09:44:53.785Z,990.29
2018-01-14T09:45:53.785Z,990.24
2018-01-14T09:46:53.762Z,990.25
2018-01-14T09:47:56.532Z,990.30
2018-01-14T09:48:53.748Z,990.25
2018-01-14T09:49:53.739Z,990.29
2018-01-14T09:50:53.730Z,990.32
2018-01-14T09:51:53.731Z,990.27
2018-01-14T09:52:53.727Z,990.31
2018-01-14T09:53:53.714Z,990.31
2018-01-14T09:54:53.708Z,990.35
2018-01-14T09:55:53.691Z,990.39
2018-01-14T09:56:53.699Z,990.42
2018-01-14T09:57:53.732Z,990.38
2018-01-14T09:58:53.687Z,990.37
2018-01-14T09:59:53.663Z,990.37
2018-01-14T10:00:53.664Z,990.38
2018-01-14T10:01:53.643Z,990.39
2018-01-14T10:02:53.635Z,990.39
2018-01-14T10:03:53.631Z,990.35
2018-01-14T10:04:53.621Z,990.36
2018-01-14T10:05:53.613Z,990.37
2018-01-14T10:06:53.638Z,990.33
2018-01-14T10:07:53.641Z,990.37
2018-01-14T10:08:53.591Z,990.32
2018-01-14T10:09:53.586Z,990.32
2018-01-14T10:10:53.625Z,990.34
2018-01-14T10:11:53.566Z,990.32
2018-01-14T10:12:53.571Z,990.35
2018-01-14T10:13:53.562Z,990.33
2018-01-14T10:14:53.546Z,990.39
2018-01-14T10:15:53.550Z,990.40
2018-01-14T10:16:53.639Z,990.38
2018-01-14T10:17:53.618Z,990.37
2018-01-14T10:18:53.668Z,990.40
2018-01-14T10:19:53.551Z,990.36
2018-01-14T10:20:53.501Z,990.40
2018-01-14T10:21:53.501Z,990.37
2018-01-14T10:22:53.542Z,990.38
2018-01-14T10:23:53.704Z,990.40
2018-01-14T10:24:53.473Z,990.36
2018-01-14T10:25:53.539Z,990.39
2018-01-14T10:26:53.470Z,990.44
2018-01-14T10:27:53.470Z,990.43
2018-01-14T10:28:53.459Z,990.41
2018-01-14T10:29:53.438Z,990.39
2018-01-14T10:30:54.047Z,990.37
2018-01-14T10:31:53.422Z,990.40
2018-01-14T10:32:53.457Z,990.36
2018-01-14T10:33:53.413Z,990.36
2018-01-14T10:34:53.407Z,990.32
2018-01-14T10:35:53.397Z,990.33
2018-01-14T10:36:53.404Z,990.36
2018-01-14T10:37:53.393Z,990.32
2018-01-14T10:38:54.086Z,990.35
2018-01-14T10:39:53.418Z,990.31
2018-01-14T10:40:53.531Z,990.27
2018-01-14T10:41:53.378Z,990.26
2018-01-14T10:42:53.455Z,990.24
2018-01-14T10:43:53.347Z,990.23
2018-01-14T10:44:53.398Z,990.26
2018-01-14T10:45:53.352Z,990.24
2018-01-14T10:46:53.385Z,990.27
2018-01-14T10:47:53.313Z,990.29
2018-01-14T10:48:54.041Z,990.32
2018-01-14T10:49:53.424Z,990.28
2018-01-14T10:50:53.298Z,990.24
2018-01-14T10:51:53.430Z,990.29
2018-01-14T10:52:53.376Z,990.27
2018-01-14T10:53:53.275Z,990.28
2018-01-14T10:54:54.294Z,990.29
2018-01-14T10:55:53.270Z,990.29
2018-01-14T10:56:53.263Z,990.27
2018-01-14T10:57:53.644Z,990.27
2018-01-14T10:58:53.428Z,990.28
2018-01-14T10:59:53.384Z,990.23
2018-01-14T11:00:53.235Z,990.23
2018-01-14T11:01:53.449Z,990.24
2018-01-14T11:02:53.332Z,990.25
2018-01-14T11:03:53.509Z,990.27
2018-01-14T11:04:53.198Z,990.24
2018-01-14T11:05:53.189Z,990.21
2018-01-14T11:06:53.193Z,990.21
2018-01-14T11:07:53.181Z,990.22
2018-01-14T11:08:53.198Z,990.20
2018-01-14T11:09:53.165Z,990.16
2018-01-14T11:10:53.180Z,990.15
2018-01-14T11:11:53.149Z,990.13
2018-01-14T11:12:53.185Z,990.18
2018-01-14T11:13:53.167Z,990.11
2018-01-14T11:14:53.128Z,990.16
2018-01-14T11:15:53.130Z,990.13
2018-01-14T11:16:53.165Z,990.13
2018-01-14T11:17:53.114Z,990.16
2018-01-14T11:18:53.110Z,990.13
2018-01-14T11:19:53.093Z,990.16
2018-01-14T11:20:53.085Z,990.14
2018-01-14T11:21:53.090Z,990.18
2018-01-14T11:22:53.088Z,990.10
2018-01-14T11:23:53.086Z,990.14
2018-01-14T11:24:53.055Z,990.17
2018-01-14T11:25:53.056Z,990.12
2018-01-14T11:26:53.245Z,990.12
2018-01-14T11:27:53.036Z,990.13
2018-01-14T11:28:53.027Z,990.17
2018-01-14T11:29:53.030Z,990.13
2018-01-14T11:30:53.016Z,990.17
2018-01-14T11:31:53.011Z,990.13
2018-01-14T11:32:53.005Z,990.13
2018-01-14T11:33:53.013Z,990.10
2018-01-14T11:34:53.023Z,990.09
2018-01-14T11:35:53.013Z,990.14
2018-01-14T11:36:52.979Z,990.14
2018-01-14T11:37:52.986Z,990.12
2018-01-14T11:38:52.978Z,990.07
2018-01-14T11:39:52.978Z,990.06
2018-01-14T11:40:52.994Z,990.06
2018-01-14T11:41:53.014Z,990.09
2018-01-14T11:42:52.981Z,990.07
2018-01-14T11:43:52.951Z,990.05
2018-01-14T11:44:53.019Z,990.08
2018-01-14T11:45:52.988Z,990.08
2018-01-14T11:46:52.925Z,990.05
2018-01-14T11:47:52.900Z,990.09
2018-01-14T11:48:52.896Z,990.13
2018-01-14T11:49:53.128Z,990.11
2018-01-14T11:50:52.968Z,990.13
2018-01-14T11:51:53.071Z,990.10
2018-01-14T11:52:52.978Z,990.13
2018-01-14T11:53:52.862Z,990.16
2018-01-14T11:54:52.866Z,990.11
2018-01-14T11:55:52.959Z,990.17
2018-01-14T11:56:52.919Z,990.10
2018-01-14T11:57:52.852Z,990.06
2018-01-14T11:58:53.728Z,990.06
2018-01-14T11:59:53.157Z,990.06
2018-01-14T12:00:52.815Z,990.11
2018-01-14T12:01:52.809Z,990.08
2018-01-14T12:02:53.109Z,990.01
2018-01-14T12:03:52.831Z,990.06
2018-01-14T12:04:52.795Z,990.09
2018-01-14T12:05:52.786Z,990.03
2018-01-14T12:06:52.769Z,990.04
2018-01-14T12:07:52.800Z,990.04
2018-01-14T12:08:52.846Z,990.02
2018-01-14T12:09:52.760Z,990.01
2018-01-14T12:10:52.756Z,989.96
2018-01-14T12:11:52.874Z,990.02
2018-01-14T12:12:52.742Z,989.85
2018-01-14T12:13:52.891Z,989.91
2018-01-14T12:14:53.490Z,989.89
2018-01-14T12:15:53.618Z,989.86
2018-01-14T12:16:53.597Z,989.85
2018-01-14T12:17:53.632Z,989.87
2018-01-14T12:18:52.898Z,989.86
2018-01-14T12:19:52.974Z,989.86
2018-01-14T12:20:53.569Z,989.83
2018-01-14T12:21:52.676Z,989.76
2018-01-14T12:22:52.728Z,989.81
2018-01-14T12:23:52.658Z,989.83
2018-01-14T12:24:52.659Z,989.77
2018-01-14T12:25:52.819Z,989.82
2018-01-14T12:26:52.641Z,989.72
2018-01-14T12:27:52.709Z,989.74
2018-01-14T12:28:52.618Z,989.72